sensor_id;sensor_type;location;lat;lon;timestamp;P1;durP1;ratioP1;P2;durP2;ratioP2
55489;SDS011;44029;52.956;4.772;2023-05-19T00:01:57;8.13;;;2.00;;
55489;SDS011;44029;52.956;4.772;2023-05-19T00:04:24;5.72;;;2.03;;
55489;SDS011;44029;52.956;4.772;2023-05-19T00:06:51;8.43;;;2.15;;
55489;SDS011;44029;52.956;4.772;2023-05-19T00:09:18;5.07;;;1.70;;
55489;SDS011;44029;52.956;4.772;2023-05-19T00:11:44;9.48;;;1.98;;
55489;SDS011;44029;52.956;4.772;2023-05-19T00:14:09;8.63;;;1.73;;
55489;SDS011;44029;52.956;4.772;2023-05-19T00:16:35;6.72;;;1.80;;
55489;SDS011;44029;52.956;4.772;2023-05-19T00:19:06;5.05;;;1.90;;
55489;SDS011;44029;52.956;4.772;2023-05-19T00:21:33;8.80;;;2.45;;
55489;SDS011;44029;52.956;4.772;2023-05-19T00:24:01;8.68;;;1.70;;
55489;SDS011;44029;52.956;4.772;2023-05-19T00:26:26;4.45;;;1.65;;
55489;SDS011;44029;52.956;4.772;2023-05-19T00:28:52;17.33;;;5.88;;
55489;SDS011;44029;52.956;4.772;2023-05-19T00:31:18;6.32;;;2.33;;
55489;SDS011;44029;52.956;4.772;2023-05-19T00:33:43;5.55;;;1.48;;
55489;SDS011;44029;52.956;4.772;2023-05-19T00:36:08;10.13;;;2.00;;
55489;SDS011;44029;52.956;4.772;2023-05-19T00:38:34;6.43;;;1.48;;
55489;SDS011;44029;52.956;4.772;2023-05-19T00:41:02;10.75;;;2.50;;
55489;SDS011;44029;52.956;4.772;2023-05-19T00:43:28;10.98;;;1.92;;
55489;SDS011;44029;52.956;4.772;2023-05-19T00:45:54;7.30;;;1.63;;
55489;SDS011;44029;52.956;4.772;2023-05-19T00:48:20;4.65;;;1.40;;
55489;SDS011;44029;52.956;4.772;2023-05-19T00:50:46;5.00;;;1.40;;
55489;SDS011;44029;52.956;4.772;2023-05-19T00:53:13;6.10;;;1.38;;
55489;SDS011;44029;52.956;4.772;2023-05-19T00:55:41;10.02;;;2.40;;
55489;SDS011;44029;52.956;4.772;2023-05-19T00:58:07;6.95;;;2.05;;
55489;SDS011;44029;52.956;4.772;2023-05-19T01:00:34;11.15;;;2.38;;
55489;SDS011;44029;52.956;4.772;2023-05-19T01:03:01;7.32;;;2.17;;
55489;SDS011;44029;52.956;4.772;2023-05-19T01:05:27;5.13;;;1.73;;
55489;SDS011;44029;52.956;4.772;2023-05-19T01:07:52;9.52;;;2.03;;
55489;SDS011;44029;52.956;4.772;2023-05-19T01:10:20;12.32;;;1.90;;
55489;SDS011;44029;52.956;4.772;2023-05-19T01:12:45;7.85;;;2.33;;
55489;SDS011;44029;52.956;4.772;2023-05-19T01:15:11;8.15;;;1.95;;
55489;SDS011;44029;52.956;4.772;2023-05-19T01:17:40;3.75;;;1.98;;
55489;SDS011;44029;52.956;4.772;2023-05-19T01:20:18;13.65;;;3.00;;
55489;SDS011;44029;52.956;4.772;2023-05-19T01:31:21;7.68;;;2.00;;
55489;SDS011;44029;52.956;4.772;2023-05-19T01:33:48;11.30;;;2.95;;
55489;SDS011;44029;52.956;4.772;2023-05-19T01:36:16;7.82;;;2.38;;
55489;SDS011;44029;52.956;4.772;2023-05-19T01:38:44;6.07;;;2.40;;
55489;SDS011;44029;52.956;4.772;2023-05-19T01:41:11;7.85;;;2.10;;
55489;SDS011;44029;52.956;4.772;2023-05-19T01:43:38;9.27;;;2.58;;
55489;SDS011;44029;52.956;4.772;2023-05-19T01:46:04;7.45;;;2.22;;
55489;SDS011;44029;52.956;4.772;2023-05-19T01:48:30;14.60;;;3.20;;
55489;SDS011;44029;52.956;4.772;2023-05-19T01:50:57;10.95;;;2.63;;
55489;SDS011;44029;52.956;4.772;2023-05-19T01:53:23;7.25;;;2.42;;
55489;SDS011;44029;52.956;4.772;2023-05-19T01:55:50;5.25;;;2.10;;
55489;SDS011;44029;52.956;4.772;2023-05-19T01:58:31;5.22;;;2.17;;
55489;SDS011;44029;52.956;4.772;2023-05-19T02:06:45;6.10;;;1.80;;
55489;SDS011;44029;52.956;4.772;2023-05-19T02:09:36;3.70;;;1.52;;
55489;SDS011;44029;52.956;4.772;2023-05-19T02:12:19;9.33;;;2.80;;
55489;SDS011;44029;52.956;4.772;2023-05-19T02:17:58;13.63;;;2.35;;
55489;SDS011;44029;52.956;4.772;2023-05-19T02:20:27;5.93;;;2.50;;
55489;SDS011;44029;52.956;4.772;2023-05-19T02:22:53;3.45;;;1.67;;
55489;SDS011;44029;52.956;4.772;2023-05-19T02:25:18;7.35;;;2.28;;
55489;SDS011;44029;52.956;4.772;2023-05-19T02:27:43;8.13;;;2.90;;
55489;SDS011;44029;52.956;4.772;2023-05-19T02:30:09;9.60;;;2.80;;
55489;SDS011;44029;52.956;4.772;2023-05-19T02:32:35;7.07;;;2.33;;
55489;SDS011;44029;52.956;4.772;2023-05-19T02:35:00;15.13;;;2.50;;
55489;SDS011;44029;52.956;4.772;2023-05-19T02:37:26;4.80;;;2.15;;
55489;SDS011;44029;52.956;4.772;2023-05-19T02:39:55;12.43;;;2.95;;
55489;SDS011;44029;52.956;4.772;2023-05-19T02:42:20;7.28;;;2.78;;
55489;SDS011;44029;52.956;4.772;2023-05-19T02:44:45;8.65;;;2.50;;
55489;SDS011;44029;52.956;4.772;2023-05-19T02:47:14;7.38;;;2.97;;
55489;SDS011;44029;52.956;4.772;2023-05-19T02:49:39;10.35;;;1.52;;
55489;SDS011;44029;52.956;4.772;2023-05-19T02:52:06;7.13;;;2.53;;
55489;SDS011;44029;52.956;4.772;2023-05-19T02:54:32;3.85;;;1.95;;
55489;SDS011;44029;52.956;4.772;2023-05-19T02:56:59;11.48;;;2.72;;
55489;SDS011;44029;52.956;4.772;2023-05-19T02:59:25;13.40;;;3.05;;
55489;SDS011;44029;52.956;4.772;2023-05-19T03:01:53;7.57;;;2.35;;
55489;SDS011;44029;52.956;4.772;2023-05-19T03:04:20;5.32;;;1.58;;
55489;SDS011;44029;52.956;4.772;2023-05-19T03:06:45;8.20;;;2.67;;
55489;SDS011;44029;52.956;4.772;2023-05-19T03:09:11;16.33;;;2.28;;
55489;SDS011;44029;52.956;4.772;2023-05-19T03:11:39;9.43;;;3.17;;
55489;SDS011;44029;52.956;4.772;2023-05-19T03:14:04;10.73;;;3.28;;
55489;SDS011;44029;52.956;4.772;2023-05-19T03:16:29;6.72;;;2.90;;
55489;SDS011;44029;52.956;4.772;2023-05-19T03:18:55;12.98;;;3.15;;
55489;SDS011;44029;52.956;4.772;2023-05-19T03:21:20;4.82;;;2.25;;
55489;SDS011;44029;52.956;4.772;2023-05-19T03:23:46;6.22;;;2.60;;
55489;SDS011;44029;52.956;4.772;2023-05-19T03:26:11;8.98;;;2.38;;
55489;SDS011;44029;52.956;4.772;2023-05-19T03:28:36;9.77;;;2.75;;
55489;SDS011;44029;52.956;4.772;2023-05-19T03:31:02;14.52;;;2.30;;
55489;SDS011;44029;52.956;4.772;2023-05-19T03:33:27;12.60;;;2.75;;
55489;SDS011;44029;52.956;4.772;2023-05-19T03:35:54;8.60;;;2.80;;
55489;SDS011;44029;52.956;4.772;2023-05-19T03:38:20;8.60;;;2.33;;
55489;SDS011;44029;52.956;4.772;2023-05-19T03:40:45;5.03;;;2.90;;
55489;SDS011;44029;52.956;4.772;2023-05-19T03:43:11;13.75;;;3.92;;
55489;SDS011;44029;52.956;4.772;2023-05-19T03:45:37;10.45;;;3.03;;
55489;SDS011;44029;52.956;4.772;2023-05-19T03:48:02;10.00;;;2.55;;
55489;SDS011;44029;52.956;4.772;2023-05-19T03:50:27;8.55;;;3.03;;
55489;SDS011;44029;52.956;4.772;2023-05-19T03:52:55;9.35;;;2.75;;
55489;SDS011;44029;52.956;4.772;2023-05-19T03:55:20;6.40;;;2.95;;
55489;SDS011;44029;52.956;4.772;2023-05-19T03:57:46;6.80;;;2.55;;
55489;SDS011;44029;52.956;4.772;2023-05-19T04:00:11;13.38;;;2.90;;
55489;SDS011;44029;52.956;4.772;2023-05-19T04:02:37;12.57;;;4.25;;
55489;SDS011;44029;52.956;4.772;2023-05-19T04:05:02;9.65;;;4.05;;
55489;SDS011;44029;52.956;4.772;2023-05-19T04:07:31;9.02;;;2.60;;
55489;SDS011;44029;52.956;4.772;2023-05-19T04:09:56;8.73;;;3.60;;
55489;SDS011;44029;52.956;4.772;2023-05-19T04:12:22;8.18;;;3.28;;
55489;SDS011;44029;52.956;4.772;2023-05-19T04:14:47;9.93;;;3.50;;
55489;SDS011;44029;52.956;4.772;2023-05-19T04:17:12;7.90;;;2.58;;
55489;SDS011;44029;52.956;4.772;2023-05-19T04:19:38;21.65;;;3.72;;
55489;SDS011;44029;52.956;4.772;2023-05-19T04:22:04;8.25;;;3.60;;
55489;SDS011;44029;52.956;4.772;2023-05-19T04:24:29;7.65;;;3.47;;
55489;SDS011;44029;52.956;4.772;2023-05-19T04:26:55;15.45;;;3.13;;
55489;SDS011;44029;52.956;4.772;2023-05-19T04:29:20;12.70;;;3.22;;
55489;SDS011;44029;52.956;4.772;2023-05-19T04:31:48;13.77;;;3.60;;
55489;SDS011;44029;52.956;4.772;2023-05-19T04:34:13;9.15;;;3.53;;
55489;SDS011;44029;52.956;4.772;2023-05-19T04:36:38;8.88;;;4.20;;
55489;SDS011;44029;52.956;4.772;2023-05-19T04:39:04;17.02;;;3.55;;
55489;SDS011;44029;52.956;4.772;2023-05-19T04:41:32;8.23;;;2.78;;
55489;SDS011;44029;52.956;4.772;2023-05-19T04:43:58;9.88;;;2.92;;
55489;SDS011;44029;52.956;4.772;2023-05-19T04:46:24;8.80;;;2.90;;
55489;SDS011;44029;52.956;4.772;2023-05-19T04:48:50;8.98;;;3.03;;
55489;SDS011;44029;52.956;4.772;2023-05-19T04:51:17;12.02;;;3.10;;
55489;SDS011;44029;52.956;4.772;2023-05-19T04:53:43;9.57;;;2.97;;
55489;SDS011;44029;52.956;4.772;2023-05-19T04:56:09;7.10;;;2.13;;
55489;SDS011;44029;52.956;4.772;2023-05-19T04:58:37;9.80;;;3.17;;
55489;SDS011;44029;52.956;4.772;2023-05-19T05:01:02;14.75;;;2.80;;
55489;SDS011;44029;52.956;4.772;2023-05-19T05:03:28;5.75;;;2.75;;
55489;SDS011;44029;52.956;4.772;2023-05-19T05:05:54;9.07;;;3.25;;
55489;SDS011;44029;52.956;4.772;2023-05-19T05:08:20;6.05;;;2.72;;
55489;SDS011;44029;52.956;4.772;2023-05-19T05:10:50;9.80;;;2.75;;
55489;SDS011;44029;52.956;4.772;2023-05-19T05:13:17;10.95;;;2.78;;
55489;SDS011;44029;52.956;4.772;2023-05-19T05:15:45;10.18;;;2.75;;
55489;SDS011;44029;52.956;4.772;2023-05-19T05:18:11;5.78;;;2.53;;
55489;SDS011;44029;52.956;4.772;2023-05-19T05:20:37;10.43;;;3.47;;
55489;SDS011;44029;52.956;4.772;2023-05-19T05:23:02;10.85;;;3.10;;
55489;SDS011;44029;52.956;4.772;2023-05-19T05:25:28;13.45;;;3.00;;
55489;SDS011;44029;52.956;4.772;2023-05-19T05:27:53;11.73;;;3.08;;
55489;SDS011;44029;52.956;4.772;2023-05-19T05:30:19;16.02;;;3.03;;
55489;SDS011;44029;52.956;4.772;2023-05-19T05:32:44;8.32;;;2.70;;
55489;SDS011;44029;52.956;4.772;2023-05-19T05:35:10;9.90;;;2.70;;
55489;SDS011;44029;52.956;4.772;2023-05-19T05:37:36;6.70;;;2.60;;
55489;SDS011;44029;52.956;4.772;2023-05-19T05:40:01;9.45;;;2.75;;
55489;SDS011;44029;52.956;4.772;2023-05-19T05:42:28;11.27;;;2.55;;
55489;SDS011;44029;52.956;4.772;2023-05-19T05:44:53;17.80;;;3.05;;
55489;SDS011;44029;52.956;4.772;2023-05-19T05:47:19;9.82;;;2.83;;
55489;SDS011;44029;52.956;4.772;2023-05-19T05:49:45;10.75;;;3.13;;
55489;SDS011;44029;52.956;4.772;2023-05-19T05:52:12;10.40;;;2.42;;
55489;SDS011;44029;52.956;4.772;2023-05-19T05:54:39;7.80;;;2.70;;
55489;SDS011;44029;52.956;4.772;2023-05-19T05:57:04;8.25;;;2.55;;
55489;SDS011;44029;52.956;4.772;2023-05-19T05:59:30;4.78;;;2.15;;
55489;SDS011;44029;52.956;4.772;2023-05-19T06:01:57;12.57;;;2.58;;
55489;SDS011;44029;52.956;4.772;2023-05-19T06:04:23;10.05;;;2.58;;
55489;SDS011;44029;52.956;4.772;2023-05-19T06:06:49;8.77;;;2.20;;
55489;SDS011;44029;52.956;4.772;2023-05-19T06:09:16;10.10;;;2.15;;
55489;SDS011;44029;52.956;4.772;2023-05-19T06:11:42;5.43;;;1.88;;
55489;SDS011;44029;52.956;4.772;2023-05-19T06:14:07;7.72;;;2.05;;
55489;SDS011;44029;52.956;4.772;2023-05-19T06:16:32;7.10;;;2.25;;
55489;SDS011;44029;52.956;4.772;2023-05-19T06:18:58;7.63;;;3.00;;
55489;SDS011;44029;52.956;4.772;2023-05-19T06:21:23;6.82;;;2.00;;
55489;SDS011;44029;52.956;4.772;2023-05-19T06:23:48;8.35;;;2.20;;
55489;SDS011;44029;52.956;4.772;2023-05-19T06:26:14;7.10;;;2.50;;
55489;SDS011;44029;52.956;4.772;2023-05-19T06:28:39;8.98;;;2.10;;
55489;SDS011;44029;52.956;4.772;2023-05-19T06:31:05;7.03;;;2.33;;
55489;SDS011;44029;52.956;4.772;2023-05-19T06:33:30;6.53;;;2.28;;
55489;SDS011;44029;52.956;4.772;2023-05-19T06:35:55;11.10;;;3.08;;
55489;SDS011;44029;52.956;4.772;2023-05-19T06:38:21;12.63;;;3.15;;
55489;SDS011;44029;52.956;4.772;2023-05-19T06:40:46;9.80;;;2.55;;
55489;SDS011;44029;52.956;4.772;2023-05-19T06:43:12;6.05;;;1.95;;
55489;SDS011;44029;52.956;4.772;2023-05-19T06:45:37;6.28;;;2.55;;
55489;SDS011;44029;52.956;4.772;2023-05-19T06:48:02;5.18;;;2.28;;
55489;SDS011;44029;52.956;4.772;2023-05-19T06:50:28;10.50;;;2.42;;
55489;SDS011;44029;52.956;4.772;2023-05-19T06:52:53;9.23;;;2.65;;
55489;SDS011;44029;52.956;4.772;2023-05-19T06:55:19;9.52;;;2.97;;
55489;SDS011;44029;52.956;4.772;2023-05-19T06:57:44;6.85;;;2.40;;
55489;SDS011;44029;52.956;4.772;2023-05-19T07:00:10;12.02;;;2.55;;
55489;SDS011;44029;52.956;4.772;2023-05-19T07:02:36;8.13;;;2.30;;
55489;SDS011;44029;52.956;4.772;2023-05-19T07:05:02;5.32;;;2.50;;
55489;SDS011;44029;52.956;4.772;2023-05-19T07:07:28;10.52;;;2.67;;
55489;SDS011;44029;52.956;4.772;2023-05-19T07:09:53;6.47;;;2.47;;
55489;SDS011;44029;52.956;4.772;2023-05-19T07:12:18;3.40;;;1.95;;
55489;SDS011;44029;52.956;4.772;2023-05-19T07:14:44;8.27;;;2.60;;
55489;SDS011;44029;52.956;4.772;2023-05-19T07:17:09;7.47;;;2.30;;
55489;SDS011;44029;52.956;4.772;2023-05-19T07:19:34;9.90;;;2.63;;
55489;SDS011;44029;52.956;4.772;2023-05-19T07:22:00;7.63;;;2.53;;
55489;SDS011;44029;52.956;4.772;2023-05-19T07:24:25;9.48;;;2.72;;
55489;SDS011;44029;52.956;4.772;2023-05-19T07:26:51;8.75;;;2.85;;
55489;SDS011;44029;52.956;4.772;2023-05-19T07:29:17;10.70;;;2.72;;
55489;SDS011;44029;52.956;4.772;2023-05-19T07:31:42;8.93;;;3.17;;
55489;SDS011;44029;52.956;4.772;2023-05-19T07:34:08;9.88;;;2.60;;
55489;SDS011;44029;52.956;4.772;2023-05-19T07:36:33;10.77;;;2.90;;
55489;SDS011;44029;52.956;4.772;2023-05-19T07:38:58;8.45;;;2.45;;
55489;SDS011;44029;52.956;4.772;2023-05-19T07:41:24;6.68;;;2.25;;
55489;SDS011;44029;52.956;4.772;2023-05-19T07:43:50;16.13;;;3.22;;
55489;SDS011;44029;52.956;4.772;2023-05-19T07:46:15;14.75;;;2.90;;
55489;SDS011;44029;52.956;4.772;2023-05-19T07:48:41;5.38;;;2.45;;
55489;SDS011;44029;52.956;4.772;2023-05-19T07:51:06;9.02;;;2.53;;
55489;SDS011;44029;52.956;4.772;2023-05-19T07:53:34;8.23;;;2.67;;
55489;SDS011;44029;52.956;4.772;2023-05-19T07:56:00;8.18;;;3.40;;
55489;SDS011;44029;52.956;4.772;2023-05-19T07:58:25;11.80;;;2.67;;
55489;SDS011;44029;52.956;4.772;2023-05-19T08:00:51;8.93;;;3.30;;
55489;SDS011;44029;52.956;4.772;2023-05-19T08:03:17;10.52;;;2.63;;
55489;SDS011;44029;52.956;4.772;2023-05-19T08:05:42;10.07;;;3.20;;
55489;SDS011;44029;52.956;4.772;2023-05-19T08:08:08;15.13;;;3.28;;
55489;SDS011;44029;52.956;4.772;2023-05-19T08:10:33;6.63;;;2.05;;
55489;SDS011;44029;52.956;4.772;2023-05-19T08:12:58;5.20;;;2.10;;
55489;SDS011;44029;52.956;4.772;2023-05-19T08:15:24;12.20;;;2.90;;
55489;SDS011;44029;52.956;4.772;2023-05-19T08:17:50;13.77;;;3.60;;
55489;SDS011;44029;52.956;4.772;2023-05-19T08:20:15;7.65;;;2.72;;
55489;SDS011;44029;52.956;4.772;2023-05-19T08:22:41;8.43;;;2.38;;
55489;SDS011;44029;52.956;4.772;2023-05-19T08:25:06;11.98;;;2.53;;
55489;SDS011;44029;52.956;4.772;2023-05-19T08:27:33;9.85;;;2.70;;
55489;SDS011;44029;52.956;4.772;2023-05-19T08:29:58;9.35;;;3.00;;
55489;SDS011;44029;52.956;4.772;2023-05-19T08:32:24;9.27;;;2.85;;
55489;SDS011;44029;52.956;4.772;2023-05-19T08:34:50;11.32;;;3.47;;
55489;SDS011;44029;52.956;4.772;2023-05-19T08:37:15;13.75;;;4.30;;
55489;SDS011;44029;52.956;4.772;2023-05-19T08:39:40;10.05;;;2.50;;
55489;SDS011;44029;52.956;4.772;2023-05-19T08:42:06;6.55;;;2.65;;
55489;SDS011;44029;52.956;4.772;2023-05-19T08:44:33;6.70;;;3.00;;
55489;SDS011;44029;52.956;4.772;2023-05-19T08:47:01;14.32;;;3.72;;
55489;SDS011;44029;52.956;4.772;2023-05-19T08:49:30;7.30;;;3.22;;
55489;SDS011;44029;52.956;4.772;2023-05-19T08:52:18;9.73;;;2.83;;
55489;SDS011;44029;52.956;4.772;2023-05-19T08:54:59;11.32;;;3.47;;
55489;SDS011;44029;52.956;4.772;2023-05-19T08:57:30;11.30;;;3.50;;
55489;SDS011;44029;52.956;4.772;2023-05-19T08:59:56;9.75;;;3.00;;
55489;SDS011;44029;52.956;4.772;2023-05-19T09:02:23;12.10;;;3.15;;
55489;SDS011;44029;52.956;4.772;2023-05-19T09:04:49;9.23;;;2.95;;
55489;SDS011;44029;52.956;4.772;2023-05-19T09:07:16;12.38;;;3.72;;
55489;SDS011;44029;52.956;4.772;2023-05-19T09:09:42;8.07;;;3.05;;
55489;SDS011;44029;52.956;4.772;2023-05-19T09:12:09;8.60;;;2.75;;
55489;SDS011;44029;52.956;4.772;2023-05-19T09:14:35;6.63;;;3.05;;
55489;SDS011;44029;52.956;4.772;2023-05-19T09:17:02;8.95;;;3.17;;
55489;SDS011;44029;52.956;4.772;2023-05-19T09:19:28;5.95;;;3.08;;
55489;SDS011;44029;52.956;4.772;2023-05-19T09:21:57;8.85;;;3.60;;
55489;SDS011;44029;52.956;4.772;2023-05-19T09:24:32;6.65;;;2.92;;
55489;SDS011;44029;52.956;4.772;2023-05-19T09:26:58;6.55;;;3.17;;
55489;SDS011;44029;52.956;4.772;2023-05-19T09:29:23;5.13;;;2.65;;
55489;SDS011;44029;52.956;4.772;2023-05-19T09:31:50;7.85;;;3.42;;
55489;SDS011;44029;52.956;4.772;2023-05-19T09:34:17;8.20;;;3.05;;
55489;SDS011;44029;52.956;4.772;2023-05-19T09:36:45;8.10;;;3.67;;
55489;SDS011;44029;52.956;4.772;2023-05-19T09:39:16;12.60;;;3.83;;
55489;SDS011;44029;52.956;4.772;2023-05-19T09:41:43;9.70;;;4.25;;
55489;SDS011;44029;52.956;4.772;2023-05-19T09:44:30;8.90;;;3.42;;
55489;SDS011;44029;52.956;4.772;2023-05-19T09:46:55;8.65;;;3.85;;
55489;SDS011;44029;52.956;4.772;2023-05-19T09:49:25;9.50;;;4.05;;
55489;SDS011;44029;52.956;4.772;2023-05-19T09:51:57;6.65;;;3.42;;
55489;SDS011;44029;52.956;4.772;2023-05-19T09:54:24;5.53;;;3.45;;
55489;SDS011;44029;52.956;4.772;2023-05-19T09:57:01;10.48;;;4.63;;
55489;SDS011;44029;52.956;4.772;2023-05-19T09:59:28;11.27;;;3.92;;
55489;SDS011;44029;52.956;4.772;2023-05-19T10:01:57;7.35;;;3.65;;
55489;SDS011;44029;52.956;4.772;2023-05-19T10:04:24;5.75;;;2.78;;
55489;SDS011;44029;52.956;4.772;2023-05-19T10:06:51;9.88;;;3.95;;
55489;SDS011;44029;52.956;4.772;2023-05-19T10:09:19;10.13;;;4.40;;
55489;SDS011;44029;52.956;4.772;2023-05-19T10:11:47;6.28;;;4.32;;
55489;SDS011;44029;52.956;4.772;2023-05-19T10:14:15;16.13;;;4.20;;
55489;SDS011;44029;52.956;4.772;2023-05-19T10:16:42;12.88;;;5.05;;
55489;SDS011;44029;52.956;4.772;2023-05-19T10:19:08;10.55;;;4.10;;
55489;SDS011;44029;52.956;4.772;2023-05-19T10:21:36;11.45;;;3.67;;
55489;SDS011;44029;52.956;4.772;2023-05-19T10:24:02;9.82;;;4.38;;
55489;SDS011;44029;52.956;4.772;2023-05-19T10:26:27;20.42;;;4.97;;
55489;SDS011;44029;52.956;4.772;2023-05-19T10:28:53;10.05;;;4.13;;
55489;SDS011;44029;52.956;4.772;2023-05-19T10:31:20;9.63;;;3.97;;
55489;SDS011;44029;52.956;4.772;2023-05-19T10:36:53;13.25;;;3.88;;
55489;SDS011;44029;52.956;4.772;2023-05-19T10:39:32;14.43;;;4.07;;
55489;SDS011;44029;52.956;4.772;2023-05-19T10:47:27;7.30;;;3.00;;
55489;SDS011;44029;52.956;4.772;2023-05-19T10:49:53;6.78;;;4.15;;
55489;SDS011;44029;52.956;4.772;2023-05-19T10:52:23;13.82;;;4.13;;
55489;SDS011;44029;52.956;4.772;2023-05-19T10:54:54;10.00;;;3.55;;
55489;SDS011;44029;52.956;4.772;2023-05-19T10:57:26;9.75;;;3.63;;
55489;SDS011;44029;52.956;4.772;2023-05-19T10:59:57;9.73;;;3.92;;
55489;SDS011;44029;52.956;4.772;2023-05-19T11:05:14;13.52;;;4.18;;
55489;SDS011;44029;52.956;4.772;2023-05-19T11:08:04;7.60;;;3.35;;
55489;SDS011;44029;52.956;4.772;2023-05-19T11:10:30;7.97;;;3.22;;
55489;SDS011;44029;52.956;4.772;2023-05-19T11:12:56;9.30;;;3.58;;
55489;SDS011;44029;52.956;4.772;2023-05-19T11:15:23;12.18;;;3.35;;
55489;SDS011;44029;52.956;4.772;2023-05-19T11:17:50;6.68;;;3.03;;
55489;SDS011;44029;52.956;4.772;2023-05-19T11:20:22;8.90;;;3.70;;
55489;SDS011;44029;52.956;4.772;2023-05-19T11:23:05;8.43;;;3.28;;
55489;SDS011;44029;52.956;4.772;2023-05-19T11:25:44;10.40;;;3.83;;
55489;SDS011;44029;52.956;4.772;2023-05-19T11:28:14;11.23;;;2.80;;
55489;SDS011;44029;52.956;4.772;2023-05-19T11:30:41;11.10;;;2.85;;
55489;SDS011;44029;52.956;4.772;2023-05-19T11:33:09;8.80;;;2.60;;
55489;SDS011;44029;52.956;4.772;2023-05-19T11:35:37;6.22;;;2.00;;
55489;SDS011;44029;52.956;4.772;2023-05-19T11:38:03;4.53;;;2.60;;
55489;SDS011;44029;52.956;4.772;2023-05-19T11:40:30;9.32;;;2.80;;
55489;SDS011;44029;52.956;4.772;2023-05-19T11:42:56;7.15;;;2.72;;
55489;SDS011;44029;52.956;4.772;2023-05-19T11:45:25;5.90;;;2.15;;
55489;SDS011;44029;52.956;4.772;2023-05-19T11:47:53;6.05;;;1.90;;
55489;SDS011;44029;52.956;4.772;2023-05-19T11:50:20;5.13;;;2.00;;
55489;SDS011;44029;52.956;4.772;2023-05-19T11:52:46;3.20;;;1.83;;
55489;SDS011;44029;52.956;4.772;2023-05-19T11:55:18;5.15;;;1.85;;
55489;SDS011;44029;52.956;4.772;2023-05-19T11:58:00;10.05;;;2.45;;
55489;SDS011;44029;52.956;4.772;2023-05-19T12:00:27;4.80;;;1.92;;
55489;SDS011;44029;52.956;4.772;2023-05-19T12:03:01;5.53;;;1.42;;
55489;SDS011;44029;52.956;4.772;2023-05-19T12:05:26;2.80;;;1.58;;
55489;SDS011;44029;52.956;4.772;2023-05-19T12:07:54;4.70;;;2.22;;
55489;SDS011;44029;52.956;4.772;2023-05-19T12:10:26;9.25;;;2.38;;
55489;SDS011;44029;52.956;4.772;2023-05-19T12:12:53;7.10;;;2.85;;
55489;SDS011;44029;52.956;4.772;2023-05-19T12:15:22;9.25;;;2.10;;
55489;SDS011;44029;52.956;4.772;2023-05-19T12:17:59;3.17;;;1.52;;
55489;SDS011;44029;52.956;4.772;2023-05-19T12:20:25;3.92;;;1.90;;
55489;SDS011;44029;52.956;4.772;2023-05-19T12:22:59;9.18;;;2.75;;
55489;SDS011;44029;52.956;4.772;2023-05-19T12:25:25;17.45;;;2.80;;
55489;SDS011;44029;52.956;4.772;2023-05-19T12:27:55;7.45;;;2.00;;
55489;SDS011;44029;52.956;4.772;2023-05-19T12:30:25;5.57;;;1.75;;
55489;SDS011;44029;52.956;4.772;2023-05-19T12:32:53;3.13;;;1.60;;
55489;SDS011;44029;52.956;4.772;2023-05-19T12:35:19;8.25;;;2.47;;
55489;SDS011;44029;52.956;4.772;2023-05-19T12:37:44;6.43;;;1.83;;
55489;SDS011;44029;52.956;4.772;2023-05-19T12:40:14;5.72;;;2.53;;
55489;SDS011;44029;52.956;4.772;2023-05-19T12:42:43;2.55;;;1.77;;
55489;SDS011;44029;52.956;4.772;2023-05-19T12:45:09;6.10;;;1.88;;
55489;SDS011;44029;52.956;4.772;2023-05-19T12:47:34;4.93;;;2.20;;
55489;SDS011;44029;52.956;4.772;2023-05-19T12:52:31;7.25;;;1.48;;
55489;SDS011;44029;52.956;4.772;2023-05-19T12:55:00;4.72;;;1.70;;
55489;SDS011;44029;52.956;4.772;2023-05-19T12:57:29;6.00;;;2.00;;
55489;SDS011;44029;52.956;4.772;2023-05-19T13:05:30;8.13;;;2.25;;
55489;SDS011;44029;52.956;4.772;2023-05-19T13:08:03;13.70;;;3.30;;
55489;SDS011;44029;52.956;4.772;2023-05-19T13:10:31;8.13;;;2.55;;
55489;SDS011;44029;52.956;4.772;2023-05-19T13:12:57;5.15;;;1.85;;
55489;SDS011;44029;52.956;4.772;2023-05-19T13:15:24;10.23;;;2.38;;
55489;SDS011;44029;52.956;4.772;2023-05-19T13:17:51;6.90;;;2.30;;
55489;SDS011;44029;52.956;4.772;2023-05-19T13:20:18;9.45;;;2.35;;
55489;SDS011;44029;52.956;4.772;2023-05-19T13:22:44;5.40;;;1.92;;
55489;SDS011;44029;52.956;4.772;2023-05-19T13:25:09;8.35;;;1.83;;
55489;SDS011;44029;52.956;4.772;2023-05-19T13:27:35;10.45;;;2.47;;
55489;SDS011;44029;52.956;4.772;2023-05-19T13:30:00;7.43;;;3.85;;
55489;SDS011;44029;52.956;4.772;2023-05-19T13:32:26;7.53;;;1.48;;
55489;SDS011;44029;52.956;4.772;2023-05-19T13:34:52;3.67;;;1.30;;
55489;SDS011;44029;52.956;4.772;2023-05-19T13:37:17;3.35;;;1.52;;
55489;SDS011;44029;52.956;4.772;2023-05-19T13:39:43;7.20;;;2.13;;
55489;SDS011;44029;52.956;4.772;2023-05-19T13:42:08;7.07;;;2.45;;
55489;SDS011;44029;52.956;4.772;2023-05-19T13:44:33;4.30;;;1.50;;
55489;SDS011;44029;52.956;4.772;2023-05-19T13:46:59;5.72;;;1.90;;
55489;SDS011;44029;52.956;4.772;2023-05-19T13:49:24;8.88;;;3.38;;
55489;SDS011;44029;52.956;4.772;2023-05-19T13:51:49;17.85;;;1.77;;
55489;SDS011;44029;52.956;4.772;2023-05-19T13:54:15;7.63;;;1.25;;
55489;SDS011;44029;52.956;4.772;2023-05-19T13:56:41;4.63;;;1.77;;
55489;SDS011;44029;52.956;4.772;2023-05-19T13:59:08;2.97;;;1.30;;
55489;SDS011;44029;52.956;4.772;2023-05-19T14:01:33;4.60;;;1.55;;
55489;SDS011;44029;52.956;4.772;2023-05-19T14:03:59;10.05;;;1.58;;
55489;SDS011;44029;52.956;4.772;2023-05-19T14:06:24;2.42;;;1.30;;
55489;SDS011;44029;52.956;4.772;2023-05-19T14:08:50;6.28;;;1.48;;
55489;SDS011;44029;52.956;4.772;2023-05-19T14:11:18;4.65;;;1.55;;
55489;SDS011;44029;52.956;4.772;2023-05-19T14:13:46;4.22;;;1.75;;
55489;SDS011;44029;52.956;4.772;2023-05-19T14:16:13;4.70;;;1.58;;
55489;SDS011;44029;52.956;4.772;2023-05-19T14:18:39;2.85;;;1.35;;
55489;SDS011;44029;52.956;4.772;2023-05-19T14:21:04;5.30;;;1.30;;
55489;SDS011;44029;52.956;4.772;2023-05-19T14:23:30;4.22;;;1.60;;
55489;SDS011;44029;52.956;4.772;2023-05-19T14:25:56;7.40;;;1.40;;
55489;SDS011;44029;52.956;4.772;2023-05-19T14:28:21;4.32;;;1.80;;
55489;SDS011;44029;52.956;4.772;2023-05-19T14:30:47;4.65;;;1.23;;
55489;SDS011;44029;52.956;4.772;2023-05-19T14:33:12;3.25;;;1.30;;
55489;SDS011;44029;52.956;4.772;2023-05-19T14:35:37;6.43;;;1.38;;
55489;SDS011;44029;52.956;4.772;2023-05-19T14:38:03;3.28;;;1.45;;
55489;SDS011;44029;52.956;4.772;2023-05-19T14:40:28;3.35;;;1.10;;
55489;SDS011;44029;52.956;4.772;2023-05-19T14:42:54;5.43;;;1.60;;
55489;SDS011;44029;52.956;4.772;2023-05-19T14:45:19;2.38;;;1.10;;
55489;SDS011;44029;52.956;4.772;2023-05-19T14:47:44;3.50;;;1.70;;
55489;SDS011;44029;52.956;4.772;2023-05-19T14:50:10;5.85;;;1.73;;
55489;SDS011;44029;52.956;4.772;2023-05-19T14:52:35;7.05;;;1.10;;
55489;SDS011;44029;52.956;4.772;2023-05-19T14:55:01;1.90;;;1.15;;
55489;SDS011;44029;52.956;4.772;2023-05-19T14:57:26;4.63;;;1.13;;
55489;SDS011;44029;52.956;4.772;2023-05-19T14:59:51;4.38;;;1.33;;
55489;SDS011;44029;52.956;4.772;2023-05-19T15:02:17;1.65;;;0.98;;
55489;SDS011;44029;52.956;4.772;2023-05-19T15:04:42;5.65;;;1.10;;
55489;SDS011;44029;52.956;4.772;2023-05-19T15:07:07;5.05;;;1.50;;
55489;SDS011;44029;52.956;4.772;2023-05-19T15:09:33;2.42;;;0.88;;
55489;SDS011;44029;52.956;4.772;2023-05-19T15:11:58;10.20;;;1.55;;
55489;SDS011;44029;52.956;4.772;2023-05-19T15:14:25;2.63;;;1.55;;
55489;SDS011;44029;52.956;4.772;2023-05-19T15:16:51;5.38;;;2.10;;
55489;SDS011;44029;52.956;4.772;2023-05-19T15:19:16;3.75;;;1.50;;